DLH11K LOWG-EDDF
Flight info
| Callsign | DLH11K |
|---|---|
| Flight time | N/A |
| Altitude | 30000 |
| Route | MILGO DCT LIMRA DCT SIMBA DCT AKINI T161 DEBHI DEBHI1C |
| Aircraft | A319/M-SDE3FGHIRWY/LB1 |
Departure
| Time | 2026-04-27 11:00 |
|---|---|
| Airport | Graz Airport (LOWG) |
Arrival
| Time | N/A |
|---|---|
| Airport | Frankfurt Main Airport (EDDF) |
| Time | Latitude | Longitude | Altitude | Speed | Heading |
|---|---|---|---|---|---|
| 2026-04-27 11:00 | 46.99626 | 15.47369 | 8494 ft | 274 kts | 319° |
| 2026-04-27 11:00 | 47.01054 | 15.45607 | 9422 ft | 275 kts | 318° |
| 2026-04-27 11:00 | 47.02513 | 15.43809 | 10348 ft | 277 kts | 318° |
| 2026-04-27 11:00 | 47.03992 | 15.41978 | 11024 ft | 287 kts | 318° |
| 2026-04-27 11:01 | 47.05561 | 15.40031 | 11496 ft | 304 kts | 318° |
| 2026-04-27 11:01 | 47.07235 | 15.37949 | 11905 ft | 323 kts | 318° |
| 2026-04-27 11:01 | 47.08989 | 15.35765 | 12349 ft | 338 kts | 318° |
| 2026-04-27 11:01 | 47.10781 | 15.33533 | 13042 ft | 344 kts | 318° |
| 2026-04-27 11:02 | 47.12503 | 15.31050 | 13822 ft | 346 kts | 308° |
| 2026-04-27 11:02 | 47.13882 | 15.28180 | 14583 ft | 349 kts | 303° |
| 2026-04-27 11:02 | 47.15210 | 15.25181 | 15310 ft | 352 kts | 303° |
| 2026-04-27 11:02 | 47.16553 | 15.22154 | 16009 ft | 356 kts | 303° |
| 2026-04-27 11:03 | 47.17921 | 15.19116 | 16732 ft | 359 kts | 304° |
| 2026-04-27 11:03 | 47.19303 | 15.16078 | 17412 ft | 362 kts | 304° |
| 2026-04-27 11:03 | 47.20708 | 15.13012 | 18073 ft | 365 kts | 304° |
| 2026-04-27 11:03 | 47.22144 | 15.09889 | 18711 ft | 368 kts | 304° |
| 2026-04-27 11:04 | 47.23576 | 15.06783 | 19309 ft | 371 kts | 305° |
| 2026-04-27 11:04 | 47.25019 | 15.03652 | 19802 ft | 376 kts | 305° |
| 2026-04-27 11:04 | 47.26499 | 15.00448 | 20267 ft | 382 kts | 305° |
| 2026-04-27 11:04 | 47.28012 | 14.97166 | 20816 ft | 385 kts | 305° |
| 2026-04-27 11:05 | 47.29495 | 14.93949 | 21370 ft | 387 kts | 305° |
| 2026-04-27 11:05 | 47.31009 | 14.90662 | 21917 ft | 389 kts | 306° |
| 2026-04-27 11:05 | 47.32543 | 14.87326 | 22448 ft | 391 kts | 306° |
| 2026-04-27 11:05 | 47.34066 | 14.84012 | 22953 ft | 393 kts | 306° |
| 2026-04-27 11:06 | 47.35592 | 14.80687 | 23445 ft | 396 kts | 306° |
| 2026-04-27 11:06 | 47.37141 | 14.77311 | 23961 ft | 398 kts | 306° |
| 2026-04-27 11:06 | 47.38695 | 14.73917 | 24445 ft | 400 kts | 306° |
| 2026-04-27 11:06 | 47.40247 | 14.70526 | 24898 ft | 403 kts | 306° |
| 2026-04-27 11:07 | 47.41812 | 14.67102 | 25339 ft | 405 kts | 306° |
| 2026-04-27 11:07 | 47.43406 | 14.63607 | 25782 ft | 408 kts | 306° |
| 2026-04-27 11:07 | 47.44982 | 14.60150 | 26189 ft | 411 kts | 306° |
| 2026-04-27 11:07 | 47.46580 | 14.56642 | 26599 ft | 413 kts | 306° |
| 2026-04-27 11:08 | 47.48185 | 14.53111 | 27074 ft | 414 kts | 306° |
| 2026-04-27 11:08 | 47.49781 | 14.49592 | 27655 ft | 412 kts | 306° |
| 2026-04-27 11:08 | 47.51367 | 14.46092 | 28247 ft | 410 kts | 306° |
| 2026-04-27 11:08 | 47.52931 | 14.42634 | 28806 ft | 408 kts | 306° |
| 2026-04-27 11:09 | 47.54508 | 14.39146 | 29255 ft | 409 kts | 306° |
| 2026-04-27 11:09 | 47.56089 | 14.35645 | 29661 ft | 410 kts | 306° |
| 2026-04-27 11:09 | 47.57673 | 14.32133 | 30065 ft | 412 kts | 305° |
| 2026-04-27 11:09 | 47.59261 | 14.28609 | 30178 ft | 416 kts | 305° |
| 2026-04-27 11:10 | 47.62501 | 14.21407 | 30180 ft | 422 kts | 305° |
| 2026-04-27 11:10 | 47.65728 | 14.14204 | 30181 ft | 422 kts | 305° |
| 2026-04-27 11:11 | 47.68975 | 14.06944 | 30181 ft | 422 kts | 305° |
| 2026-04-27 11:11 | 47.72193 | 13.99724 | 30175 ft | 423 kts | 305° |
| 2026-04-27 11:12 | 47.75454 | 13.92394 | 30171 ft | 428 kts | 305° |
| 2026-04-27 11:12 | 47.78733 | 13.85001 | 30172 ft | 429 kts | 305° |
| 2026-04-27 11:13 | 47.81984 | 13.77651 | 30175 ft | 429 kts | 304° |
| 2026-04-27 11:13 | 47.85251 | 13.70240 | 30171 ft | 429 kts | 304° |
| 2026-04-27 11:14 | 47.88510 | 13.62831 | 30178 ft | 428 kts | 305° |
| 2026-04-27 11:14 | 47.91765 | 13.55413 | 30171 ft | 428 kts | 304° |
| 2026-04-27 11:15 | 47.95005 | 13.48007 | 30177 ft | 429 kts | 304° |
| 2026-04-27 11:15 | 47.98264 | 13.40536 | 30177 ft | 429 kts | 304° |
| 2026-04-27 11:16 | 48.01496 | 13.33106 | 30179 ft | 430 kts | 303° |
| 2026-04-27 11:16 | 48.04734 | 13.25643 | 30177 ft | 430 kts | 303° |
| 2026-04-27 11:17 | 48.07964 | 13.18180 | 30181 ft | 430 kts | 303° |
| 2026-04-27 11:17 | 48.11214 | 13.10649 | 30179 ft | 429 kts | 303° |
| 2026-04-27 11:18 | 48.14426 | 13.03184 | 30169 ft | 430 kts | 303° |
| 2026-04-27 11:18 | 48.17647 | 12.95677 | 30168 ft | 430 kts | 303° |
| 2026-04-27 11:19 | 48.20864 | 12.88157 | 30168 ft | 431 kts | 303° |
| 2026-04-27 11:19 | 48.24101 | 12.80577 | 30167 ft | 431 kts | 303° |
| 2026-04-27 11:20 | 48.27323 | 12.73006 | 30165 ft | 431 kts | 303° |
| 2026-04-27 11:20 | 48.30534 | 12.65439 | 30165 ft | 431 kts | 303° |
| 2026-04-27 11:21 | 48.33739 | 12.57869 | 30165 ft | 432 kts | 303° |
| 2026-04-27 11:21 | 48.36959 | 12.50241 | 30165 ft | 432 kts | 303° |
| 2026-04-27 11:22 | 48.40161 | 12.42631 | 30165 ft | 432 kts | 303° |
| 2026-04-27 11:22 | 48.43346 | 12.35035 | 30166 ft | 432 kts | 303° |
| 2026-04-27 11:23 | 48.46544 | 12.27391 | 30166 ft | 432 kts | 302° |
| 2026-04-27 11:23 | 48.49717 | 12.19787 | 30166 ft | 432 kts | 302° |
| 2026-04-27 11:24 | 48.52889 | 12.12166 | 30168 ft | 431 kts | 302° |
| 2026-04-27 11:24 | 48.56070 | 12.04498 | 30169 ft | 432 kts | 302° |
| 2026-04-27 11:25 | 48.59253 | 11.96801 | 30172 ft | 432 kts | 302° |
| 2026-04-27 11:25 | 48.62411 | 11.89142 | 30172 ft | 433 kts | 302° |
| 2026-04-27 11:26 | 48.65575 | 11.81446 | 30178 ft | 432 kts | 302° |
| 2026-04-27 11:26 | 48.68729 | 11.73760 | 30186 ft | 431 kts | 302° |
| 2026-04-27 11:27 | 48.71881 | 11.66051 | 30191 ft | 431 kts | 302° |
| 2026-04-27 11:27 | 48.75020 | 11.58351 | 30191 ft | 431 kts | 302° |
| 2026-04-27 11:28 | 48.78150 | 11.50647 | 30189 ft | 431 kts | 302° |
| 2026-04-27 11:28 | 48.81275 | 11.42931 | 30191 ft | 431 kts | 302° |
| 2026-04-27 11:29 | 48.84378 | 11.35247 | 30194 ft | 430 kts | 302° |
| 2026-04-27 11:29 | 48.87506 | 11.27475 | 30193 ft | 431 kts | 301° |
| 2026-04-27 11:30 | 48.90623 | 11.19706 | 30184 ft | 431 kts | 301° |
| 2026-04-27 11:30 | 48.93756 | 11.12003 | 30178 ft | 431 kts | 304° |
| 2026-04-27 11:31 | 48.97365 | 11.04759 | 30175 ft | 431 kts | 310° |
| 2026-04-27 11:31 | 49.01541 | 10.98201 | 30169 ft | 431 kts | 316° |
| 2026-04-27 11:32 | 49.05924 | 10.92005 | 30164 ft | 431 kts | 316° |
| 2026-04-27 11:32 | 49.10291 | 10.85867 | 30165 ft | 431 kts | 316° |
| 2026-04-27 11:33 | 49.14685 | 10.79651 | 30168 ft | 431 kts | 316° |
| 2026-04-27 11:33 | 49.19062 | 10.73433 | 30176 ft | 431 kts | 315° |
| 2026-04-27 11:34 | 49.23265 | 10.66960 | 30185 ft | 431 kts | 313° |
| 2026-04-27 11:34 | 49.27439 | 10.60366 | 30193 ft | 431 kts | 313° |
| 2026-04-27 11:35 | 49.31606 | 10.53768 | 30199 ft | 432 kts | 313° |
| 2026-04-27 11:35 | 49.35665 | 10.47086 | 30198 ft | 431 kts | 310° |
| 2026-04-27 11:36 | 49.39274 | 10.39762 | 30202 ft | 431 kts | 305° |
| 2026-04-27 11:36 | 49.42696 | 10.32257 | 30201 ft | 430 kts | 304° |
| 2026-04-27 11:37 | 49.46102 | 10.24750 | 30205 ft | 430 kts | 304° |
| 2026-04-27 11:37 | 49.49503 | 10.17242 | 30211 ft | 430 kts | 304° |
| 2026-04-27 11:38 | 49.52916 | 10.09692 | 30204 ft | 430 kts | 304° |
| 2026-04-27 11:38 | 49.56297 | 10.02199 | 30201 ft | 430 kts | 304° |
| 2026-04-27 11:39 | 49.59701 | 9.94638 | 30200 ft | 430 kts | 304° |
| 2026-04-27 11:39 | 49.63097 | 9.87090 | 30198 ft | 429 kts | 304° |
| 2026-04-27 11:40 | 49.66467 | 9.79554 | 30195 ft | 429 kts | 304° |
| 2026-04-27 11:40 | 49.69844 | 9.71973 | 30194 ft | 429 kts | 303° |
| 2026-04-27 11:41 | 49.73210 | 9.64395 | 30192 ft | 429 kts | 303° |
| 2026-04-27 11:41 | 49.76570 | 9.56827 | 30187 ft | 429 kts | 303° |
| 2026-04-27 11:42 | 49.79929 | 9.49227 | 30187 ft | 429 kts | 303° |
| 2026-04-27 11:42 | 49.83282 | 9.41609 | 30189 ft | 429 kts | 303° |
| 2026-04-27 11:43 | 49.86326 | 9.33732 | 30185 ft | 428 kts | 292° |
| 2026-04-27 11:43 | 49.88172 | 9.25028 | 30184 ft | 428 kts | 286° |
| 2026-04-27 11:44 | 49.89828 | 9.16206 | 30185 ft | 427 kts | 286° |
| 2026-04-27 11:44 | 49.91492 | 9.07378 | 30182 ft | 427 kts | 286° |
| 2026-04-27 11:45 | 49.93159 | 8.98631 | 30185 ft | 426 kts | 286° |
| 2026-04-27 11:45 | 49.94834 | 8.89858 | 30182 ft | 425 kts | 286° |
| 2026-04-27 11:46 | 49.96503 | 8.81046 | 30194 ft | 425 kts | 286° |
| 2026-04-27 11:46 | 49.97860 | 8.72209 | 30182 ft | 426 kts | 271° |
| 2026-04-27 11:47 | 49.97360 | 8.67644 | 30200 ft | 431 kts | 253° |
| 2026-04-27 11:47 | 49.96286 | 8.63311 | 30214 ft | 432 kts | 251° |
| 2026-04-27 11:47 | 49.94148 | 8.54624 | 30213 ft | 433 kts | 252° |
| 2026-04-27 11:48 | 49.92043 | 8.45910 | 30209 ft | 433 kts | 252° |
| 2026-04-27 11:48 | 49.89950 | 8.37227 | 30207 ft | 433 kts | 252° |
| 2026-04-27 11:49 | 49.87824 | 8.28458 | 30207 ft | 433 kts | 252° |
| 2026-04-27 11:49 | 49.85710 | 8.19773 | 30199 ft | 433 kts | 252° |
| 2026-04-27 11:50 | 49.83590 | 8.11084 | 30201 ft | 433 kts | 252° |
| 2026-04-27 11:50 | 49.81456 | 8.02379 | 30201 ft | 433 kts | 252° |
| 2026-04-27 11:51 | 49.79323 | 7.93705 | 30199 ft | 434 kts | 252° |
| 2026-04-27 11:52 | 49.76145 | 7.80614 | 30190 ft | 433 kts | 252° |
| 2026-04-27 11:52 | 49.74042 | 7.71939 | 30192 ft | 433 kts | 252° |
| 2026-04-27 11:53 | 49.71932 | 7.63287 | 30189 ft | 433 kts | 252° |
| 2026-04-27 11:53 | 49.69806 | 7.54619 | 30196 ft | 433 kts | 252° |
| 2026-04-27 11:54 | 49.67665 | 7.45932 | 30208 ft | 433 kts | 252° |
| 2026-04-27 11:54 | 49.65535 | 7.37321 | 30209 ft | 432 kts | 252° |
| 2026-04-27 11:55 | 49.63390 | 7.28686 | 30208 ft | 432 kts | 251° |
| 2026-04-27 11:55 | 49.61247 | 7.20091 | 30205 ft | 432 kts | 251° |
| 2026-04-27 11:56 | 49.59083 | 7.11447 | 30196 ft | 432 kts | 251° |
| 2026-04-27 11:56 | 49.56932 | 7.02882 | 30180 ft | 432 kts | 251° |
| 2026-04-27 11:57 | 49.54764 | 6.94282 | 30173 ft | 432 kts | 251° |
| 2026-04-27 11:57 | 49.52579 | 6.85647 | 30179 ft | 431 kts | 251° |
| 2026-04-27 11:58 | 49.50417 | 6.77140 | 30166 ft | 431 kts | 251° |
| 2026-04-27 11:58 | 49.48233 | 6.68580 | 30167 ft | 432 kts | 251° |
| 2026-04-27 11:59 | 49.46036 | 6.59999 | 30167 ft | 432 kts | 251° |
| 2026-04-27 11:59 | 49.43846 | 6.51477 | 30172 ft | 431 kts | 251° |
| 2026-04-27 12:00 | 49.41634 | 6.42897 | 30175 ft | 431 kts | 251° |
| 2026-04-27 12:00 | 49.39435 | 6.34414 | 30174 ft | 431 kts | 250° |
| 2026-04-27 12:01 | 49.37210 | 6.25846 | 30169 ft | 432 kts | 250° |
| 2026-04-27 12:01 | 49.34992 | 6.17346 | 30174 ft | 431 kts | 250° |
| 2026-04-27 12:02 | 49.32761 | 6.08822 | 30172 ft | 432 kts | 250° |
| 2026-04-27 12:02 | 49.30536 | 6.00355 | 30172 ft | 432 kts | 249° |
| 2026-04-27 12:03 | 49.28291 | 5.91841 | 30169 ft | 432 kts | 249° |
| 2026-04-27 12:03 | 49.26034 | 5.83322 | 30173 ft | 431 kts | 249° |
| 2026-04-27 12:04 | 49.23799 | 5.74913 | 30170 ft | 430 kts | 249° |
| 2026-04-27 12:04 | 49.21536 | 5.66430 | 30173 ft | 430 kts | 249° |
| 2026-04-27 12:05 | 49.19276 | 5.57993 | 30173 ft | 430 kts | 249° |
| 2026-04-27 12:05 | 49.17018 | 5.49585 | 30176 ft | 430 kts | 249° |
| 2026-04-27 12:06 | 49.14745 | 5.41153 | 30173 ft | 430 kts | 249° |
| 2026-04-27 12:06 | 49.12474 | 5.32766 | 30178 ft | 430 kts | 249° |
| 2026-04-27 12:07 | 49.10192 | 5.24365 | 30170 ft | 431 kts | 249° |
| 2026-04-27 12:07 | 49.07891 | 5.15923 | 30163 ft | 431 kts | 249° |
| 2026-04-27 12:08 | 49.05598 | 5.07532 | 30161 ft | 430 kts | 249° |
| 2026-04-27 12:08 | 49.03301 | 4.99170 | 30156 ft | 430 kts | 249° |
| 2026-04-27 12:09 | 49.00988 | 4.90776 | 30160 ft | 430 kts | 249° |
| 2026-04-27 12:09 | 48.98687 | 4.82458 | 30164 ft | 430 kts | 249° |
| 2026-04-27 12:10 | 48.96360 | 4.74068 | 30157 ft | 429 kts | 249° |
| 2026-04-27 12:10 | 48.94046 | 4.65757 | 30162 ft | 430 kts | 249° |
| 2026-04-27 12:11 | 48.91718 | 4.57430 | 30168 ft | 431 kts | 249° |
| 2026-04-27 12:11 | 48.89372 | 4.49062 | 30166 ft | 431 kts | 249° |
| 2026-04-27 12:12 | 48.87024 | 4.40713 | 30169 ft | 431 kts | 248° |
| 2026-04-27 12:12 | 48.84667 | 4.32364 | 30178 ft | 430 kts | 248° |
| 2026-04-27 12:13 | 48.82316 | 4.24070 | 30183 ft | 429 kts | 248° |
| 2026-04-27 12:13 | 48.79957 | 4.15774 | 30181 ft | 429 kts | 248° |
| 2026-04-27 12:14 | 48.77609 | 4.07547 | 30182 ft | 428 kts | 248° |
| 2026-04-27 12:14 | 48.75235 | 3.99256 | 30179 ft | 429 kts | 248° |
| 2026-04-27 12:15 | 48.72854 | 3.90971 | 30174 ft | 429 kts | 248° |
| 2026-04-27 12:15 | 48.70475 | 3.82718 | 30167 ft | 430 kts | 248° |
| 2026-04-27 12:16 | 48.68103 | 3.74518 | 30166 ft | 429 kts | 248° |
| 2026-04-27 12:16 | 48.65704 | 3.66251 | 30161 ft | 429 kts | 248° |
| 2026-04-27 12:17 | 48.63308 | 3.58023 | 30153 ft | 429 kts | 248° |
| 2026-04-27 12:17 | 48.60900 | 3.49779 | 30149 ft | 430 kts | 248° |
| 2026-04-27 12:18 | 48.58500 | 3.41596 | 30149 ft | 429 kts | 248° |
| 2026-04-27 12:18 | 48.56074 | 3.33355 | 30150 ft | 429 kts | 247° |
| 2026-04-27 12:19 | 48.53666 | 3.25198 | 30150 ft | 429 kts | 247° |
| 2026-04-27 12:19 | 48.51237 | 3.16995 | 30152 ft | 429 kts | 247° |
| 2026-04-27 12:20 | 48.48808 | 3.08824 | 30148 ft | 429 kts | 247° |
| 2026-04-27 12:20 | 48.46374 | 3.00660 | 30145 ft | 429 kts | 246° |